createdAt,value
2022-10-23T00:00:18.013Z,5.10
2022-10-23T00:02:45.168Z,6.15
2022-10-23T00:05:12.117Z,2.60
2022-10-23T00:07:38.879Z,2.45
2022-10-23T00:10:07.911Z,3.78
2022-10-23T00:12:34.841Z,7.65
2022-10-23T00:15:01.785Z,3.85
2022-10-23T00:17:28.445Z,2.10
2022-10-23T00:19:55.129Z,5.13
2022-10-23T00:22:22.106Z,2.20
2022-10-23T00:24:48.799Z,3.58
2022-10-23T00:27:16.797Z,3.88
2022-10-23T00:29:45.083Z,3.55
2022-10-23T00:32:11.847Z,4.00
2022-10-23T00:34:38.577Z,3.60
2022-10-23T00:37:05.378Z,4.55
2022-10-23T00:39:32.070Z,5.03
2022-10-23T00:41:59.087Z,4.88
2022-10-23T00:45:03.131Z,5.57
2022-10-23T00:47:31.141Z,3.85
2022-10-23T00:49:58.820Z,3.97
2022-10-23T00:52:25.508Z,6.57
2022-10-23T00:54:52.605Z,3.85
2022-10-23T00:57:19.358Z,3.80
2022-10-23T00:59:46.144Z,3.72
2022-10-23T01:02:13.215Z,2.58
2022-10-23T01:04:41.770Z,2.95
2022-10-23T01:07:15.133Z,1.65
2022-10-23T01:09:48.198Z,3.65
2022-10-23T01:12:20.989Z,5.88
2022-10-23T01:15:00.146Z,2.45
2022-10-23T01:17:34.208Z,3.70
2022-10-23T01:20:14.188Z,3.08
2022-10-23T01:23:05.540Z,3.83
2022-10-23T01:25:55.570Z,2.00
2022-10-23T01:28:29.538Z,7.43
2022-10-23T01:30:58.152Z,3.00
2022-10-23T01:33:35.285Z,3.53
2022-10-23T01:36:05.893Z,2.85
2022-10-23T01:38:41.219Z,1.85
2022-10-23T01:41:20.936Z,2.25
2022-10-23T01:43:54.643Z,2.83
2022-10-23T01:46:23.619Z,1.40
2022-10-23T01:48:53.201Z,3.17
2022-10-23T01:51:25.022Z,4.13
2022-10-23T01:53:57.263Z,2.50
2022-10-23T01:56:28.903Z,5.03
2022-10-23T01:59:00.831Z,3.83
2022-10-23T02:01:33.026Z,3.80
2022-10-23T02:04:03.286Z,3.83
2022-10-23T02:06:30.910Z,5.00
2022-10-23T02:08:57.755Z,3.08
2022-10-23T02:11:24.857Z,2.38
2022-10-23T02:14:01.207Z,2.53
2022-10-23T02:16:36.925Z,4.50
2022-10-23T02:19:12.819Z,5.88
2022-10-23T02:24:13.723Z,3.95
2022-10-23T02:26:51.492Z,5.32
2022-10-23T02:29:26.479Z,5.40
2022-10-23T02:31:55.244Z,6.85
2022-10-23T02:34:22.942Z,5.38
2022-10-23T02:36:49.754Z,10.70
2022-10-23T02:39:20.127Z,10.13
2022-10-23T02:41:54.820Z,4.38
2022-10-23T02:44:34.054Z,5.93
2022-10-23T02:47:14.158Z,4.75
2022-10-23T02:49:50.697Z,4.03
2022-10-23T02:52:24.235Z,4.13
2022-10-23T02:55:05.202Z,4.25
2022-10-23T02:57:49.681Z,6.00
2022-10-23T03:00:20.323Z,4.80
2022-10-23T03:02:56.705Z,3.58
2022-10-23T03:07:54.247Z,3.25
2022-10-23T03:10:21.233Z,2.60
2022-10-23T03:12:48.844Z,4.15
2022-10-23T03:15:17.814Z,4.25
2022-10-23T03:17:44.521Z,3.95
2022-10-23T03:20:11.525Z,2.17
2022-10-23T03:22:38.310Z,5.55
2022-10-23T03:25:07.831Z,4.18
2022-10-23T03:27:35.627Z,4.65
2022-10-23T03:30:06.186Z,3.65
2022-10-23T03:32:36.582Z,3.85
2022-10-23T03:35:03.741Z,4.38
2022-10-23T03:37:30.527Z,4.40
2022-10-23T03:39:57.311Z,3.75
2022-10-23T03:42:24.028Z,3.08
2022-10-23T03:44:50.714Z,4.18
2022-10-23T03:47:18.875Z,6.95
2022-10-23T03:49:46.963Z,3.70
2022-10-23T03:52:13.855Z,5.88
2022-10-23T03:54:40.608Z,4.05
2022-10-23T03:57:07.345Z,4.20
2022-10-23T03:59:34.143Z,3.92
2022-10-23T04:02:01.002Z,4.05
2022-10-23T04:04:27.820Z,8.25
2022-10-23T04:06:55.770Z,2.78
2022-10-23T04:09:22.770Z,4.57
2022-10-23T04:11:49.409Z,4.57
2022-10-23T04:14:16.639Z,4.57
2022-10-23T04:16:43.300Z,8.25
2022-10-23T04:19:10.208Z,11.75
2022-10-23T04:21:36.862Z,10.07
2022-10-23T04:24:05.754Z,10.15
2022-10-23T04:26:32.519Z,10.77
2022-10-23T04:28:59.282Z,7.75
2022-10-23T04:31:28.612Z,6.07
2022-10-23T04:33:55.494Z,7.03
2022-10-23T04:36:28.997Z,7.15
2022-10-23T04:38:58.739Z,8.20
2022-10-23T04:41:27.025Z,5.35
2022-10-23T04:43:53.666Z,4.47
2022-10-23T04:46:20.344Z,8.35
2022-10-23T04:48:48.494Z,9.90
2022-10-23T04:51:29.570Z,6.55
2022-10-23T04:54:38.005Z,4.05
2022-10-23T04:57:21.298Z,5.00
2022-10-23T05:00:06.088Z,5.10
2022-10-23T05:02:40.338Z,3.72
2022-10-23T05:05:08.079Z,4.15
2022-10-23T05:07:57.449Z,4.63
2022-10-23T05:10:47.904Z,5.05
2022-10-23T05:13:19.649Z,4.90
2022-10-23T05:15:48.279Z,8.05
2022-10-23T05:18:22.921Z,5.55
2022-10-23T05:20:52.131Z,5.85
2022-10-23T05:23:21.957Z,6.55
2022-10-23T05:25:55.217Z,11.75
2022-10-23T05:28:23.623Z,10.63
2022-10-23T05:30:51.378Z,9.20
2022-10-23T05:33:18.214Z,9.32
2022-10-23T05:35:45.560Z,10.05
2022-10-23T05:38:15.606Z,7.80
2022-10-23T05:40:43.475Z,7.20
2022-10-23T05:43:15.434Z,13.23
2022-10-23T05:45:50.729Z,5.55
2022-10-23T05:48:35.398Z,5.68
2022-10-23T05:51:10.844Z,8.25
2022-10-23T05:53:47.651Z,11.27
2022-10-23T05:56:30.751Z,6.97
2022-10-23T05:59:05.258Z,9.30
2022-10-23T06:01:53.706Z,7.45
2022-10-23T06:04:36.625Z,9.90
2022-10-23T06:07:25.135Z,5.40
2022-10-23T06:09:54.282Z,6.72
2022-10-23T06:12:21.939Z,6.70
2022-10-23T06:17:20.175Z,7.40
2022-10-23T06:19:47.076Z,7.15
2022-10-23T06:22:17.355Z,10.75
2022-10-23T06:24:58.946Z,6.25
2022-10-23T06:27:27.219Z,9.73
2022-10-23T06:29:55.145Z,7.82
2022-10-23T06:32:23.334Z,5.15
2022-10-23T06:35:09.485Z,7.07
2022-10-23T06:37:36.169Z,6.68
2022-10-23T06:42:59.009Z,8.88
2022-10-23T06:45:55.480Z,6.10
2022-10-23T06:48:46.970Z,8.43
2022-10-23T06:51:22.412Z,7.50
2022-10-23T06:53:49.879Z,6.88
2022-10-23T06:56:39.406Z,8.25
2022-10-23T06:59:08.033Z,6.22
2022-10-23T07:01:36.120Z,6.22
2022-10-23T07:04:07.562Z,7.13
2022-10-23T07:06:34.291Z,9.57
2022-10-23T07:09:01.328Z,5.68
2022-10-23T07:11:48.068Z,7.03
2022-10-23T07:14:15.030Z,9.43
2022-10-23T07:16:42.355Z,7.78
2022-10-23T07:19:11.247Z,8.52
2022-10-23T07:21:43.759Z,8.02
2022-10-23T07:24:31.914Z,10.52
2022-10-23T07:27:00.611Z,8.07
2022-10-23T07:29:29.052Z,8.20
2022-10-23T07:31:57.510Z,7.15
2022-10-23T07:35:04.064Z,9.82
2022-10-23T07:37:33.907Z,7.63
2022-10-23T07:40:03.094Z,6.40
2022-10-23T07:42:32.588Z,8.60
2022-10-23T07:44:59.251Z,6.63
2022-10-23T07:47:26.026Z,6.38
2022-10-23T07:49:53.012Z,5.65
2022-10-23T07:52:21.724Z,6.28
2022-10-23T07:57:38.451Z,5.47
2022-10-23T08:00:27.871Z,5.10
2022-10-23T08:03:04.098Z,7.32
2022-10-23T08:05:31.941Z,6.13
2022-10-23T08:08:02.519Z,5.95
2022-10-23T08:10:30.277Z,6.63
2022-10-23T08:12:58.207Z,5.47
2022-10-23T08:15:45.227Z,5.70
2022-10-23T08:18:31.417Z,6.43
2022-10-23T08:21:02.058Z,8.38
2022-10-23T08:23:30.765Z,6.60
2022-10-23T08:25:59.048Z,10.73
2022-10-23T08:28:26.112Z,7.20
2022-10-23T08:30:55.871Z,6.35
2022-10-23T08:33:22.933Z,6.22
2022-10-23T08:35:50.757Z,5.38
2022-10-23T08:38:25.092Z,4.88
2022-10-23T08:40:53.824Z,8.27
2022-10-23T08:43:34.358Z,7.35
2022-10-23T08:49:35.747Z,5.03
2022-10-23T08:52:14.106Z,5.97
2022-10-23T08:54:48.613Z,5.00
2022-10-23T08:57:18.476Z,5.47
2022-10-23T08:59:48.133Z,6.97
2022-10-23T09:02:20.453Z,8.57
2022-10-23T09:04:50.387Z,6.90
2022-10-23T09:07:34.021Z,6.78
2022-10-23T09:10:16.508Z,9.90
2022-10-23T09:12:44.597Z,6.05
2022-10-23T09:15:23.160Z,8.98
2022-10-23T09:17:55.981Z,7.40
2022-10-23T09:20:25.714Z,7.57
2022-10-23T09:22:55.087Z,5.47
2022-10-23T09:25:25.466Z,5.78
2022-10-23T09:27:57.441Z,5.45
2022-10-23T09:30:29.913Z,3.42
2022-10-23T09:32:56.587Z,4.78
2022-10-23T09:35:25.730Z,2.45
2022-10-23T09:37:55.773Z,3.20
2022-10-23T09:40:30.227Z,6.35
2022-10-23T09:43:00.584Z,2.65
2022-10-23T09:45:31.542Z,2.70
2022-10-23T09:48:11.656Z,1.88
2022-10-23T09:50:47.374Z,3.58
2022-10-23T09:53:17.128Z,3.08
2022-10-23T09:55:51.517Z,3.15
2022-10-23T09:58:25.064Z,2.20
2022-10-23T10:00:54.704Z,2.33
2022-10-23T10:03:37.706Z,2.40
2022-10-23T10:06:23.198Z,2.42
2022-10-23T10:08:53.343Z,1.00
2022-10-23T10:11:25.842Z,4.47
2022-10-23T10:14:06.832Z,3.38
2022-10-23T10:16:42.568Z,5.57
2022-10-23T10:19:20.047Z,3.25
2022-10-23T10:21:52.907Z,4.32
2022-10-23T10:24:25.901Z,3.55
2022-10-23T10:27:00.939Z,3.00
2022-10-23T10:29:43.917Z,4.22
2022-10-23T10:32:24.909Z,4.10
2022-10-23T10:34:58.902Z,5.28
2022-10-23T10:37:31.431Z,4.45
2022-10-23T10:40:02.965Z,5.15
2022-10-23T10:42:42.273Z,2.70
2022-10-23T10:45:19.745Z,4.07
2022-10-23T10:48:00.877Z,6.38
2022-10-23T10:50:42.699Z,1.90
2022-10-23T10:53:28.189Z,5.28
2022-10-23T10:55:57.395Z,4.30
2022-10-23T10:58:31.914Z,3.03
2022-10-23T11:01:03.913Z,2.30
2022-10-23T11:03:39.879Z,2.97
2022-10-23T11:06:15.216Z,2.20
2022-10-23T11:08:56.250Z,4.90
2022-10-23T11:11:31.514Z,1.80
2022-10-23T11:13:58.442Z,9.18
2022-10-23T11:16:30.684Z,2.60
2022-10-23T11:19:11.444Z,2.70
2022-10-23T11:21:44.797Z,2.20
2022-10-23T11:24:27.655Z,2.35
2022-10-23T11:27:19.255Z,3.45
2022-10-23T11:30:04.139Z,1.77
2022-10-23T11:33:14.934Z,1.92
2022-10-23T11:35:54.815Z,2.63
2022-10-23T11:38:27.125Z,2.72
2022-10-23T11:40:56.407Z,2.72
2022-10-23T11:43:28.397Z,4.75
2022-10-23T11:45:55.382Z,4.10
2022-10-23T11:48:35.517Z,2.60
2022-10-23T11:51:05.141Z,3.60
2022-10-23T11:53:40.269Z,2.47
2022-10-23T11:56:26.646Z,2.92
2022-10-23T11:58:55.692Z,3.22
2022-10-23T12:01:31.396Z,3.97
2022-10-23T12:04:03.886Z,7.72
2022-10-23T12:06:38.075Z,3.33
2022-10-23T12:09:08.075Z,3.70
2022-10-23T12:11:44.688Z,4.53
2022-10-23T12:14:27.796Z,5.28
2022-10-23T12:16:54.640Z,2.97
2022-10-23T12:19:25.097Z,4.43
2022-10-23T12:21:53.633Z,2.33
2022-10-23T12:24:49.172Z,1.95
2022-10-23T12:27:28.559Z,3.60
2022-10-23T12:30:09.513Z,3.92
2022-10-23T12:32:46.862Z,3.35
2022-10-23T12:35:27.749Z,3.28
2022-10-23T12:38:10.326Z,2.88
2022-10-23T12:40:37.334Z,2.40
2022-10-23T12:43:20.749Z,3.60
2022-10-23T12:45:48.045Z,4.00
2022-10-23T12:48:19.709Z,5.28
2022-10-23T12:50:51.106Z,2.58
2022-10-23T12:53:19.823Z,3.35
2022-10-23T12:58:19.517Z,4.72
2022-10-23T13:00:51.496Z,5.53
2022-10-23T13:03:21.681Z,2.85
2022-10-23T13:05:51.497Z,4.13
2022-10-23T13:08:19.001Z,3.58
2022-10-23T13:11:06.743Z,4.03
2022-10-23T13:13:40.410Z,5.30
2022-10-23T13:16:14.461Z,3.70
2022-10-23T13:18:42.043Z,7.97
2022-10-23T13:21:17.967Z,3.25
2022-10-23T13:23:45.166Z,5.50
2022-10-23T13:26:28.668Z,3.25
2022-10-23T13:28:56.346Z,3.92
2022-10-23T13:31:26.888Z,4.07
2022-10-23T13:34:17.405Z,5.50
2022-10-23T13:37:23.556Z,5.13
2022-10-23T13:39:59.746Z,3.55
2022-10-23T13:42:26.492Z,4.93
2022-10-23T13:44:53.357Z,7.05
2022-10-23T13:47:20.645Z,3.85
2022-10-23T13:49:47.612Z,3.92
2022-10-23T13:52:19.323Z,6.60
2022-10-23T13:54:47.698Z,2.88
2022-10-23T13:57:15.756Z,5.32
2022-10-23T13:59:42.706Z,3.95
2022-10-23T14:02:18.668Z,4.63
2022-10-23T14:04:46.552Z,2.05
2022-10-23T14:07:13.522Z,2.80
2022-10-23T14:09:40.236Z,4.50
2022-10-23T14:12:08.662Z,3.05
2022-10-23T14:14:35.366Z,3.80
2022-10-23T14:17:01.981Z,3.08
2022-10-23T14:19:28.841Z,2.80
2022-10-23T14:21:55.771Z,4.93
2022-10-23T14:24:22.651Z,4.93
2022-10-23T14:26:49.402Z,7.53
2022-10-23T14:29:22.900Z,2.08
2022-10-23T14:31:50.951Z,4.15
2022-10-23T14:34:17.717Z,6.15
2022-10-23T14:36:50.284Z,2.45
2022-10-23T14:39:18.148Z,3.72
2022-10-23T14:41:45.070Z,7.60
2022-10-23T14:44:11.755Z,4.03
2022-10-23T14:46:39.888Z,2.75
2022-10-23T14:49:06.967Z,3.10
2022-10-23T14:51:33.829Z,3.33
2022-10-23T14:54:02.590Z,2.47
2022-10-23T14:59:02.706Z,6.18
2022-10-23T15:01:30.124Z,5.68
2022-10-23T15:03:58.553Z,1.75
2022-10-23T15:06:25.690Z,2.10
2022-10-23T15:08:56.505Z,4.18
2022-10-23T15:11:24.861Z,5.93
2022-10-23T15:13:52.078Z,3.58
2022-10-23T15:16:18.990Z,4.35
2022-10-23T15:18:45.970Z,1.80
2022-10-23T15:21:14.838Z,2.85
2022-10-23T15:23:45.083Z,3.90
2022-10-23T15:26:14.322Z,2.85
2022-10-23T15:28:41.036Z,3.72
2022-10-23T15:31:24.140Z,5.60
2022-10-23T15:33:50.841Z,2.88
2022-10-23T15:36:19.104Z,2.50
2022-10-23T15:38:46.002Z,5.25
2022-10-23T15:41:15.395Z,3.67
2022-10-23T15:43:42.174Z,2.88
2022-10-23T15:46:09.080Z,6.63
2022-10-23T15:48:35.791Z,6.90
2022-10-23T15:51:02.530Z,7.13
2022-10-23T15:53:30.640Z,3.67
2022-10-23T15:55:58.780Z,5.60
2022-10-23T15:58:25.871Z,4.85
2022-10-23T16:00:52.669Z,5.60
2022-10-23T16:03:19.393Z,4.05
2022-10-23T16:05:46.286Z,3.45
2022-10-23T16:08:13.231Z,4.60
2022-10-23T16:10:42.287Z,4.78
2022-10-23T16:13:09.148Z,4.38
2022-10-23T16:15:36.251Z,6.32
2022-10-23T16:18:03.226Z,7.57
2022-10-23T16:20:30.455Z,3.90
2022-10-23T16:22:57.154Z,3.47
2022-10-23T16:25:24.124Z,5.57
2022-10-23T16:27:52.336Z,8.70
2022-10-23T16:30:21.383Z,9.75
2022-10-23T16:32:48.097Z,7.25
2022-10-23T16:35:14.822Z,2.90
2022-10-23T16:37:54.759Z,4.13
2022-10-23T16:40:21.438Z,4.35
2022-10-23T16:43:08.337Z,2.97
2022-10-23T16:45:45.267Z,4.50
2022-10-23T16:48:11.921Z,3.58
2022-10-23T16:53:06.227Z,5.20
2022-10-23T16:55:32.889Z,12.10
2022-10-23T16:58:00.745Z,4.50
2022-10-23T17:00:34.832Z,7.07
2022-10-23T17:03:02.703Z,4.82
2022-10-23T17:05:32.450Z,6.93
2022-10-23T17:07:59.121Z,4.43
2022-10-23T17:10:25.897Z,7.28
2022-10-23T17:12:52.608Z,6.43
2022-10-23T17:15:21.187Z,13.38
2022-10-23T17:17:49.371Z,8.85
2022-10-23T17:20:16.118Z,13.90
2022-10-23T17:22:42.921Z,16.65
2022-10-23T17:25:10.462Z,12.25
2022-10-23T17:27:37.354Z,14.85
2022-10-23T17:30:08.158Z,12.02
2022-10-23T17:32:37.331Z,11.13
2022-10-23T17:35:08.373Z,12.07
2022-10-23T17:37:35.319Z,20.92
2022-10-23T17:40:05.017Z,17.20
2022-10-23T17:42:31.974Z,15.95
2022-10-23T17:44:58.932Z,24.67
2022-10-23T17:47:25.614Z,24.23
2022-10-23T17:49:52.615Z,13.05
2022-10-23T17:52:20.598Z,12.13
2022-10-23T17:54:51.464Z,22.45
2022-10-23T17:57:18.195Z,17.17
2022-10-23T17:59:44.905Z,14.15
2022-10-23T18:02:13.683Z,9.95
2022-10-23T18:04:40.750Z,15.02
2022-10-23T18:07:07.558Z,17.52
2022-10-23T18:09:35.720Z,29.55
2022-10-23T18:12:02.537Z,11.73
2022-10-23T18:14:29.922Z,29.52
2022-10-23T18:16:56.829Z,24.33
2022-10-23T18:19:23.715Z,14.00
2022-10-23T18:21:50.392Z,13.32
2022-10-23T18:24:18.154Z,19.45
2022-10-23T18:26:48.113Z,12.65
2022-10-23T18:29:17.277Z,15.45
2022-10-23T18:31:45.331Z,19.08
2022-10-23T18:34:15.978Z,19.00
2022-10-23T18:36:43.005Z,19.15
2022-10-23T18:39:13.404Z,15.35
2022-10-23T18:41:42.881Z,17.33
2022-10-23T18:44:15.423Z,16.92
2022-10-23T18:46:42.443Z,22.40
2022-10-23T18:49:09.313Z,15.57
2022-10-23T18:51:37.014Z,20.60
2022-10-23T18:54:06.994Z,17.00
2022-10-23T18:56:35.837Z,13.38
2022-10-23T18:59:05.263Z,12.45
2022-10-23T19:01:34.769Z,11.20
2022-10-23T19:04:02.266Z,11.80
2022-10-23T19:06:29.905Z,11.15
2022-10-23T19:08:57.274Z,12.85
2022-10-23T19:11:26.454Z,11.75
2022-10-23T19:13:53.302Z,14.70
2022-10-23T19:16:25.873Z,12.93
2022-10-23T19:18:57.350Z,13.15
2022-10-23T19:21:31.119Z,10.27
2022-10-23T19:24:00.452Z,10.02
2022-10-23T19:26:27.813Z,13.77
2022-10-23T19:28:54.527Z,14.68
2022-10-23T19:31:23.358Z,14.25
2022-10-23T19:33:50.628Z,16.02
2022-10-23T19:36:23.032Z,15.00
2022-10-23T19:38:50.569Z,11.13
2022-10-23T19:41:18.842Z,15.40
2022-10-23T19:43:45.614Z,15.75
2022-10-23T19:46:12.623Z,18.02
2022-10-23T19:48:44.115Z,13.38
2022-10-23T19:51:12.998Z,16.48
2022-10-23T19:53:41.956Z,17.50
2022-10-23T19:56:10.949Z,14.20
2022-10-23T19:58:38.007Z,12.85
2022-10-23T20:01:10.498Z,11.82
2022-10-23T20:03:37.849Z,11.48
2022-10-23T20:06:07.632Z,15.88
2022-10-23T20:08:35.151Z,11.80
2022-10-23T20:11:03.582Z,20.10
2022-10-23T20:13:30.606Z,12.48
2022-10-23T20:15:57.432Z,14.02
2022-10-23T20:18:25.822Z,14.93
2022-10-23T20:20:53.199Z,13.75
2022-10-23T20:23:19.936Z,18.33
2022-10-23T20:25:46.683Z,16.15
2022-10-23T20:28:15.323Z,16.73
2022-10-23T20:30:42.648Z,13.70
2022-10-23T20:33:09.489Z,16.90
2022-10-23T20:35:40.384Z,11.52
2022-10-23T20:38:08.236Z,13.95
2022-10-23T20:40:35.735Z,11.88
2022-10-23T20:43:02.510Z,13.25
2022-10-23T20:45:30.624Z,19.10
2022-10-23T20:47:57.352Z,15.32
2022-10-23T20:50:24.114Z,16.85
2022-10-23T20:52:51.399Z,17.23
2022-10-23T20:55:18.972Z,12.35
2022-10-23T20:57:46.742Z,12.80
2022-10-23T21:00:15.246Z,13.68
2022-10-23T21:02:47.012Z,17.85
2022-10-23T21:05:15.790Z,13.70
2022-10-23T21:07:42.659Z,14.32
2022-10-23T21:10:09.589Z,15.57
2022-10-23T21:12:36.295Z,13.35
2022-10-23T21:15:03.052Z,14.02
2022-10-23T21:17:35.279Z,11.77
2022-10-23T21:20:04.245Z,16.02
2022-10-23T21:22:31.273Z,9.85
2022-10-23T21:25:00.153Z,11.75
2022-10-23T21:27:27.044Z,9.90
2022-10-23T21:29:53.872Z,10.85
2022-10-23T21:32:20.856Z,16.27
2022-10-23T21:34:47.617Z,9.75
2022-10-23T21:37:15.769Z,13.63
2022-10-23T21:39:43.710Z,13.27
2022-10-23T21:42:10.895Z,13.32
2022-10-23T21:44:37.621Z,10.80
2022-10-23T21:47:04.533Z,10.93
2022-10-23T21:49:31.539Z,8.35
2022-10-23T21:51:58.407Z,11.57
2022-10-23T21:54:26.695Z,6.43
2022-10-23T21:56:53.935Z,10.68
2022-10-23T21:59:22.672Z,13.18
2022-10-23T22:01:50.035Z,10.10
2022-10-23T22:04:18.538Z,11.32
2022-10-23T22:06:46.929Z,11.20
2022-10-23T22:09:15.327Z,13.82
2022-10-23T22:11:43.422Z,10.30
2022-10-23T22:14:10.238Z,10.10
2022-10-23T22:16:37.048Z,11.52
2022-10-23T22:19:04.070Z,13.25
2022-10-23T22:21:31.040Z,11.77
2022-10-23T22:23:59.566Z,14.10
2022-10-23T22:26:28.690Z,11.10
2022-10-23T22:28:59.385Z,11.45
2022-10-23T22:31:28.615Z,21.35
2022-10-23T22:33:56.207Z,9.05
2022-10-23T22:36:23.382Z,11.63
2022-10-23T22:38:50.331Z,15.43
2022-10-23T22:41:18.060Z,16.33
2022-10-23T22:43:45.010Z,9.27
2022-10-23T22:46:15.117Z,7.45
2022-10-23T22:48:42.259Z,10.18
2022-10-23T22:51:12.094Z,11.77
2022-10-23T22:53:38.903Z,10.25
2022-10-23T22:56:06.447Z,14.77
2022-10-23T22:58:33.530Z,16.00
2022-10-23T23:01:04.732Z,8.68
2022-10-23T23:03:34.623Z,16.08
2022-10-23T23:06:03.634Z,8.75
2022-10-23T23:10:57.863Z,12.52
2022-10-23T23:13:25.525Z,9.45
2022-10-23T23:15:52.435Z,9.73
2022-10-23T23:18:19.559Z,8.13
2022-10-23T23:20:47.827Z,10.65
2022-10-23T23:23:15.355Z,9.10
2022-10-23T23:25:42.929Z,8.65
2022-10-23T23:28:11.904Z,8.30
2022-10-23T23:30:38.920Z,10.32
2022-10-23T23:33:05.624Z,8.80
2022-10-23T23:35:32.371Z,8.02
2022-10-23T23:38:00.614Z,6.97
2022-10-23T23:40:27.370Z,9.73
2022-10-23T23:42:54.007Z,6.57
2022-10-23T23:45:20.796Z,9.27
2022-10-23T23:47:47.781Z,11.65
2022-10-23T23:50:15.237Z,8.00
2022-10-23T23:52:42.074Z,8.77
2022-10-23T23:55:10.761Z,9.25
2022-10-23T23:57:37.501Z,10.40
